Time;durP1;ratioP1;P1;durP2;ratioP2;P2;SDS_P1;SDS_P2;PMS_P1;PMS_P2;Temp;Humidity;BMP_temperature;BMP_pressure;BME280_temperature;BME280_humidity;BME280_pressure;Samples;Min_cycle;Max_cycle;Signal;HPM_P1;HPM_P2
2021/12/18 00:00:59;;;;;;;2.15;1.95;;;9.50;60.50;;;7.88;66.53;103359.63;8381505;28;20124;-89
2021/12/18 00:05:21;;;;;;;3.20;1.70;;;9.50;60.50;;;7.94;66.83;103369.19;8371179;28;20111;-89
2021/12/18 00:09:43;;;;;;;4.03;1.73;;;9.50;60.70;;;7.91;66.68;103364.84;8360657;28;20128;-88
2021/12/18 00:14:05;;;;;;;2.75;2.03;;;9.50;60.70;;;7.95;66.62;103353.56;8372759;28;20131;-89
2021/12/18 00:18:27;;;;;;;2.08;1.90;;;9.50;60.70;;;7.99;66.75;103362.22;8362291;28;20063;-87
2021/12/18 00:22:48;;;;;;;1.63;1.52;;;9.50;60.60;;;7.97;66.49;103359.63;8383967;28;20477;-88
2021/12/18 00:27:10;;;;;;;1.42;1.33;;;9.50;60.60;;;7.95;66.73;103356.16;8367086;28;20131;-89
2021/12/18 00:31:32;;;;;;;2.22;1.35;;;9.50;60.60;;;7.92;66.62;103345.75;8381023;28;20449;-87
2021/12/18 00:35:53;;;;;;;1.02;1.02;;;9.50;60.60;;;7.90;66.46;103352.69;8383843;28;20184;-87
2021/12/18 00:40:23;;;;;;;0.90;0.90;;;9.50;60.50;;;7.90;66.64;103364.84;8375182;28;20040;-89
2021/12/18 00:44:45;;;;;;;0.90;0.90;;;9.50;60.60;;;7.84;66.50;103352.72;8361946;28;20107;-87
2021/12/18 00:49:11;;;;;;;0.90;0.90;;;9.40;60.50;;;7.84;66.82;103344.06;8359217;28;20127;-87
2021/12/18 00:53:32;;;;;;;1.05;0.93;;;9.50;60.70;;;7.86;66.99;103345.78;8361071;28;20128;-89
2021/12/18 00:57:54;;;;;;;1.50;1.10;;;9.50;60.80;;;7.88;66.61;103350.97;8367203;28;20043;-87
2021/12/18 01:02:16;;;;;;;1.00;0.90;;;9.50;60.80;;;7.89;66.83;103366.59;8360997;28;20921;-88
2021/12/18 01:06:38;;;;;;;2.55;1.00;;;9.50;60.70;;;7.97;66.93;103356.19;8377295;28;20128;-88
2021/12/18 01:15:47;;;;;;;0.82;0.82;;;9.60;60.70;;;7.95;66.73;103355.31;8365520;28;20119;-89
2021/12/18 01:24:50;;;;;;;1.33;1.23;;;9.60;60.70;;;7.94;66.90;103348.38;8380793;28;20120;-86
2021/12/18 01:29:11;;;;;;;1.17;1.05;;;9.50;60.60;;;7.96;66.47;103347.47;8374148;28;20127;-87
2021/12/18 01:33:33;;;;;;;1.30;1.20;;;9.60;60.60;;;7.94;66.52;103331.03;8343665;28;20131;-89
2021/12/18 01:37:55;;;;;;;1.70;1.60;;;9.50;60.70;;;7.85;66.38;103317.16;8365834;28;20408;-89
2021/12/18 01:51:12;;;;;;;1.42;1.30;;;9.50;60.60;;;7.93;66.92;103341.41;8368111;28;20568;-87
2021/12/18 01:52:01;;;;;;;1.52;1.38;;;9.50;60.70;;;7.84;66.90;103320.63;8371698;28;20564;-87
2021/12/18 01:56:25;;;;;;;1.50;1.40;;;9.50;60.70;;;7.85;66.66;103320.63;8366712;28;20115;-87
2021/12/18 02:00:48;;;;;;;1.77;1.58;;;9.50;60.80;;;7.88;66.55;103331.00;8360816;28;20127;-87
2021/12/18 02:05:11;;;;;;;2.72;1.60;;;9.50;60.80;;;7.89;66.79;103335.38;8369542;28;20141;-88
2021/12/18 02:09:52;;;;;;;1.77;1.67;;;9.40;60.70;;;7.95;66.82;103342.28;8368172;28;20119;-87
2021/12/18 02:14:35;;;;;;;1.55;1.45;;;9.50;60.80;;;7.95;66.55;103343.16;8353719;28;20445;-88
2021/12/18 02:23:38;;;;;;;1.52;1.42;;;9.40;60.70;;;7.90;66.60;103342.28;8365264;28;20119;-89
2021/12/18 02:28:00;;;;;;;1.55;1.45;;;9.60;60.80;;;7.85;66.98;103331.03;8350208;28;20144;-87
2021/12/18 02:32:22;;;;;;;1.67;1.58;;;9.50;60.60;;;7.84;66.58;103329.31;8351306;28;20119;-88
2021/12/18 02:36:47;;;;;;;1.60;1.50;;;9.40;60.70;;;7.88;66.81;103323.22;8364805;28;20591;-88
2021/12/18 02:41:28;;;;;;;2.05;1.85;;;9.50;60.80;;;7.92;66.73;103343.16;8351825;28;20134;-88
2021/12/18 02:45:53;;;;;;;1.75;1.58;;;9.50;60.90;;;7.85;67.00;103317.16;8380187;28;20033;-88
2021/12/18 02:50:15;;;;;;;1.95;1.85;;;9.50;60.90;;;7.96;66.87;103334.47;8351586;28;20392;-89
2021/12/18 02:54:42;;;;;;;1.67;1.58;;;9.50;60.90;;;7.92;66.75;103324.94;8357867;28;20385;-88
2021/12/18 02:59:08;;;;;;;3.15;1.90;;;9.60;61.00;;;7.98;66.76;103321.47;8362738;28;20040;-88
2021/12/18 03:03:33;;;;;;;1.85;1.73;;;9.60;61.00;;;7.96;66.66;103305.00;8380994;28;20463;-88
2021/12/18 03:08:03;;;;;;;1.85;1.70;;;9.60;61.00;;;7.94;66.74;103301.53;8355422;28;20590;-88
2021/12/18 03:22:33;;;;;;;2.05;1.88;;;9.60;61.10;;;7.90;66.69;103302.41;8371783;28;20552;-88
2021/12/18 03:26:30;;;;;;;1.52;1.42;;;9.50;61.70;;;7.92;66.79;103301.53;8369636;28;20498;-88
2021/12/18 03:30:51;;;;;;;2.78;1.88;;;9.50;61.10;;;7.96;66.86;103300.63;8381624;28;20127;-88
2021/12/18 03:35:16;;;;;;;5.05;2.22;;;9.50;61.20;;;8.00;67.08;103290.25;8378334;28;20119;-89
2021/12/18 03:39:38;;;;;;;2.00;1.80;;;9.60;61.30;;;8.00;67.02;103279.84;8383883;28;20382;-88
2021/12/18 03:43:59;;;;;;;2.60;2.00;;;9.60;61.30;;;7.94;66.64;103271.19;8379449;28;20119;-88
2021/12/18 03:48:21;;;;;;;1.98;1.80;;;9.60;61.30;;;7.94;66.48;103272.94;8356034;28;20123;-88
2021/12/18 03:52:43;;;;;;;2.45;2.10;;;9.60;61.30;;;7.99;66.61;103278.94;8359828;28;20123;-88
2021/12/18 03:57:05;;;;;;;1.80;1.70;;;9.60;61.30;;;8.01;66.46;103279.81;8378881;28;20135;-88
2021/12/18 04:01:27;;;;;;;1.98;1.73;;;9.60;61.30;;;7.94;66.53;103267.72;8372925;28;20119;-88
2021/12/18 04:05:49;;;;;;;1.73;1.63;;;9.60;61.50;;;7.95;66.73;103272.03;8357080;28;20127;-88
2021/12/18 04:10:14;;;;;;;3.13;1.55;;;9.60;61.60;;;8.00;67.05;103274.63;8367558;28;20127;-88
2021/12/18 04:14:36;;;;;;;1.42;1.33;;;9.60;61.60;;;7.97;67.15;103276.38;8362741;28;20119;-88
2021/12/18 04:18:59;;;;;;;1.95;1.60;;;9.60;61.60;;;7.99;66.99;103276.34;8367924;28;20050;-88
2021/12/18 04:23:21;;;;;;;1.80;1.70;;;9.60;61.60;;;7.98;66.66;103274.63;8354616;28;20115;-88
2021/12/18 04:27:43;;;;;;;2.58;1.80;;;9.60;61.50;;;8.05;66.69;103278.97;8365849;28;20123;-88
2021/12/18 04:32:05;;;;;;;1.55;1.42;;;9.60;61.60;;;8.00;67.05;103269.44;8374435;28;20152;-89
2021/12/18 04:36:27;;;;;;;1.90;1.77;;;9.60;61.60;;;8.02;67.07;103272.88;8360208;28;20123;-87
2021/12/18 04:40:49;;;;;;;1.92;1.58;;;9.60;61.60;;;8.06;66.77;103266.81;8366119;28;20040;-89
2021/12/18 04:45:11;;;;;;;1.75;1.65;;;9.60;61.60;;;8.01;66.87;103268.56;8401422;22;20448;-86
2021/12/18 04:49:33;;;;;;;2.08;1.88;;;9.60;61.70;;;8.08;66.63;103278.09;8462488;27;20434;-86
2021/12/18 04:53:54;;;;;;;2.42;2.22;;;9.60;61.70;;;8.01;67.11;103261.59;8465188;27;20127;-86
2021/12/18 04:58:16;;;;;;;3.80;2.38;;;9.60;61.70;;;8.08;66.71;103267.66;8434788;28;20130;-86
2021/12/18 05:02:41;;;;;;;2.65;2.45;;;9.60;61.70;;;8.05;66.56;103259.88;8435641;28;20122;-88
2021/12/18 05:07:03;;;;;;;2.03;1.90;;;9.70;61.90;;;8.00;67.01;103243.41;8435103;28;20114;-86
2021/12/18 05:11:25;;;;;;;2.22;2.13;;;9.70;61.90;;;8.00;66.82;103254.69;8433401;28;20118;-86
2021/12/18 05:15:47;;;;;;;2.33;2.13;;;9.60;61.90;;;8.04;67.02;103265.94;8449148;28;20468;-86
2021/12/18 05:20:09;;;;;;;2.20;2.03;;;9.70;62.00;;;8.06;67.01;103267.66;8433442;28;20151;-87
2021/12/18 05:24:31;;;;;;;3.40;2.40;;;9.70;62.00;;;8.04;66.55;103265.94;8448348;28;20181;-86
2021/12/18 05:28:53;;;;;;;2.10;2.00;;;9.70;62.00;;;8.09;66.83;103278.06;8443431;28;20460;-86
2021/12/18 05:33:14;;;;;;;2.35;2.00;;;9.70;62.00;;;8.01;66.96;103258.16;8448793;28;20468;-86
2021/12/18 05:37:51;;;;;;;3.30;2.20;;;9.60;62.00;;;8.07;66.68;103263.31;8448808;28;20558;-86
2021/12/18 05:42:14;;;;;;;2.00;1.90;;;9.70;62.20;;;8.03;67.20;103248.59;8435730;27;20110;-87
2021/12/18 05:46:36;;;;;;;2.28;1.90;;;9.70;62.20;;;8.08;67.08;103265.06;8434059;28;20110;-87
2021/12/18 05:50:58;;;;;;;1.85;1.52;;;9.70;62.20;;;7.96;66.93;103233.00;8449222;28;20126;-85
2021/12/18 05:55:22;;;;;;;2.97;2.13;;;9.70;62.30;;;8.05;67.00;103252.06;8440754;28;20110;-87
2021/12/18 05:59:44;;;;;;;2.33;2.05;;;9.70;62.40;;;8.02;66.91;103232.13;8434370;28;20118;-87
2021/12/18 06:04:06;;;;;;;2.92;2.60;;;9.70;62.30;;;8.13;67.10;103247.69;8421594;28;20110;-87
2021/12/18 06:08:31;;;;;;;2.20;2.00;;;9.90;62.50;;;8.01;67.01;103240.78;8418214;28;20122;-87
2021/12/18 06:12:53;;;;;;;1.77;1.67;;;9.70;63.00;;;8.02;66.96;103242.53;8429332;28;20119;-87
2021/12/18 06:17:14;;;;;;;2.40;2.20;;;9.70;62.40;;;8.09;66.80;103249.44;8434745;28;20559;-86
2021/12/18 06:21:36;;;;;;;2.25;2.08;;;9.70;62.50;;;8.12;66.81;103259.81;8446112;28;20127;-89
2021/12/18 06:25:58;;;;;;;2.42;2.22;;;9.70;62.50;;;8.06;66.94;103236.44;8435745;28;20118;-84
2021/12/18 06:30:20;;;;;;;2.50;2.30;;;9.70;62.50;;;8.09;67.10;103238.16;8446881;28;20185;-84
2021/12/18 06:34:42;;;;;;;2.03;1.83;;;9.60;62.50;;;8.11;66.88;103234.69;8438798;28;20117;-81
2021/12/18 06:39:03;;;;;;;2.00;1.80;;;9.70;62.60;;;8.08;66.88;103215.63;8451153;28;20571;-84
2021/12/18 06:43:25;;;;;;;1.92;1.83;;;9.70;62.50;;;8.14;67.10;103224.25;8468026;27;20110;-82
2021/12/18 06:47:47;;;;;;;1.80;1.70;;;9.80;62.60;;;8.17;67.03;103220.78;8467867;27;20123;-84
2021/12/18 06:52:08;;;;;;;1.95;1.85;;;9.70;62.70;;;8.15;67.23;103218.16;8447072;28;20697;-81
2021/12/18 06:56:30;;;;;;;1.63;1.52;;;9.70;62.60;;;8.08;66.96;103216.47;8416186;28;20123;-83
2021/12/18 07:00:53;;;;;;;1.73;1.63;;;9.70;62.60;;;8.05;67.19;103205.25;8425038;28;20628;-87
2021/12/18 07:05:15;;;;;;;1.50;1.40;;;9.70;62.70;;;8.06;67.03;103202.59;8422170;27;20115;-84
2021/12/18 07:09:37;;;;;;;1.95;1.73;;;9.70;62.80;;;8.10;67.61;103221.66;8426776;27;20127;-83
2021/12/18 07:13:59;;;;;;;1.75;1.65;;;9.70;62.70;;;8.08;67.29;103218.22;8439542;27;20118;-86
2021/12/18 07:18:21;;;;;;;1.63;1.52;;;9.70;62.80;;;7.96;67.20;103206.97;8451046;28;20130;-89
2021/12/18 07:22:42;;;;;;;1.80;1.70;;;9.60;62.80;;;8.05;67.02;103233.84;8435980;28;20126;-87
2021/12/18 07:27:04;;;;;;;1.52;1.40;;;9.60;62.90;;;8.02;67.36;103216.53;8443277;28;20114;-86
2021/12/18 07:31:27;;;;;;;1.42;1.33;;;9.60;62.90;;;8.02;67.24;103210.44;8450040;28;20115;-85
2021/12/18 07:35:49;;;;;;;1.38;1.27;;;9.60;63.00;;;8.06;67.42;103213.03;8437595;27;20126;-87
2021/12/18 07:40:12;;;;;;;1.35;1.25;;;9.60;63.00;;;8.08;66.97;103218.22;8442971;28;20122;-78
2021/12/18 07:44:34;;;;;;;1.08;1.08;;;9.60;63.00;;;8.02;67.02;103210.44;8445114;27;20465;-81
2021/12/18 07:48:55;;;;;;;2.17;1.52;;;9.60;63.10;;;8.06;67.14;103206.94;8463846;28;20126;-78
2021/12/18 07:53:17;;;;;;;0.95;0.95;;;9.70;63.20;;;8.08;67.13;103207.81;8468561;27;20622;-78
2021/12/18 07:57:39;;;;;;;0.90;0.90;;;9.60;63.00;;;7.98;67.48;103180.97;8472349;27;20118;-86
2021/12/18 08:02:01;;;;;;;1.20;1.10;;;9.60;63.10;;;8.08;67.23;103189.59;8438528;28;20474;-88
2021/12/18 08:06:22;;;;;;;1.25;1.15;;;9.60;63.10;;;8.00;67.50;103166.22;8448016;27;20034;-88
2021/12/18 08:10:44;;;;;;;0.95;0.93;;;9.40;63.00;;;8.07;67.48;103177.44;8418976;27;20412;-86
2021/12/18 08:15:07;;;;;;;1.08;0.98;;;9.60;63.20;;;8.00;67.13;103155.81;8431125;27;20558;-87
2021/12/18 08:19:29;;;;;;;0.90;0.90;;;9.70;63.30;;;8.12;67.18;103166.13;8434887;28;20473;-87
2021/12/18 08:23:50;;;;;;;1.30;1.17;;;9.70;63.30;;;8.11;67.30;103160.97;8434800;28;20099;-89
2021/12/18 08:28:12;;;;;;;1.17;1.17;;;9.70;63.40;;;8.14;67.41;103173.94;8446236;28;20098;-87
2021/12/18 08:32:34;;;;;;;1.30;1.20;;;9.70;63.40;;;8.05;67.20;103164.47;8431001;28;20198;-86
2021/12/18 08:36:55;;;;;;;1.45;1.35;;;9.70;63.40;;;8.11;67.55;103187.84;8434403;28;20115;-87
2021/12/18 08:41:19;;;;;;;1.38;1.27;;;9.60;63.40;;;8.05;67.47;103180.06;8443713;28;20127;-90
2021/12/18 08:45:41;;;;;;;1.08;1.05;;;9.70;63.30;;;7.95;67.48;103168.84;8454401;27;20113;-87
2021/12/18 08:50:05;;;;;;;1.17;1.08;;;9.60;63.20;;;7.98;67.56;103170.56;8444347;28;20134;-89
2021/12/18 08:54:26;;;;;;;0.82;0.82;;;9.60;63.10;;;7.95;67.40;103163.63;8457653;28;20122;-88
2021/12/18 08:58:50;;;;;;;0.85;0.85;;;9.60;63.10;;;8.03;67.64;103184.41;8434615;28;20580;-86
2021/12/18 09:03:13;;;;;;;0.70;0.70;;;9.60;63.10;;;8.00;67.25;103175.75;8422063;28;20139;-86
2021/12/18 09:07:34;;;;;;;0.70;0.70;;;9.90;63.50;;;8.03;67.65;103175.75;8462332;27;20106;-87
2021/12/18 09:11:56;;;;;;;0.80;0.80;;;9.60;63.30;;;8.01;67.39;103167.06;8431815;28;20096;-84
2021/12/18 09:16:18;;;;;;;0.90;0.90;;;9.60;63.30;;;8.03;67.48;103167.94;8429525;28;20114;-83
2021/12/18 09:20:44;;;;;;;0.98;0.98;;;9.70;63.40;;;8.07;67.33;103180.91;8445951;28;20122;-81
2021/12/18 09:25:07;;;;;;;1.55;1.10;;;9.70;63.50;;;8.09;67.42;103178.31;8450922;28;20575;-82
2021/12/18 09:29:29;;;;;;;1.30;1.20;;;9.70;64.10;;;8.13;67.62;103187.84;8431740;28;20106;-83
2021/12/18 09:33:50;;;;;;;0.82;0.82;;;9.70;63.50;;;8.11;67.38;103173.97;8429039;28;20132;-83
2021/12/18 09:38:12;;;;;;;1.40;1.30;;;9.70;63.50;;;8.17;67.34;103179.13;8452595;28;20452;-83
2021/12/18 09:42:35;;;;;;;1.00;1.00;;;9.70;63.50;;;8.08;67.41;103150.56;8430126;28;20468;-86
2021/12/18 09:46:58;;;;;;;1.27;1.25;;;9.70;63.50;;;8.15;67.55;103152.25;8440916;28;20122;-85
2021/12/18 09:51:27;;;;;;;1.00;1.00;;;9.70;63.50;;;8.19;67.41;103161.78;8432557;27;20463;-92
2021/12/18 09:55:49;;;;;;;1.10;1.00;;;9.70;63.50;;;8.07;67.56;103128.00;8445293;28;20126;-85
2021/12/18 10:00:19;;;;;;;1.00;1.00;;;9.80;63.50;;;8.19;67.63;103153.97;8463863;27;20139;-84
2021/12/18 10:04:41;;;;;;;1.15;1.05;;;9.70;63.40;;;8.11;67.39;103132.34;8435582;28;20109;-85
2021/12/18 10:09:17;;;;;;;1.13;1.10;;;9.80;63.50;;;8.12;67.65;103123.63;8444924;28;20131;-85
2021/12/18 10:13:58;;;;;;;0.82;0.82;;;9.70;63.40;;;8.13;67.45;103121.03;8434098;28;20099;-86
2021/12/18 10:18:20;;;;;;;1.30;1.20;;;9.80;63.70;;;8.23;67.52;103121.81;8431353;28;20126;-85
2021/12/18 10:22:57;;;;;;;1.20;1.10;;;9.70;63.60;;;8.21;67.67;103115.78;8432043;28;20122;-85
2021/12/18 10:27:26;;;;;;;1.30;1.10;;;9.80;63.80;;;8.17;67.45;103098.44;8439376;28;20110;-84
2021/12/18 10:31:48;;;;;;;1.10;1.00;;;9.80;63.80;;;8.31;67.48;103117.44;8446095;28;20254;-85
2021/12/18 10:36:15;;;;;;;1.30;1.10;;;9.90;64.00;;;8.29;67.24;103106.19;8430425;28;20139;-86
2021/12/18 10:40:46;;;;;;;1.52;1.20;;;9.90;64.10;;;8.25;67.48;103080.19;8420589;28;20567;-85
2021/12/18 10:45:23;;;;;;;1.05;0.95;;;9.90;64.10;;;8.34;67.70;103082.69;8445569;22;20051;-82
2021/12/18 10:49:45;;;;;;;1.15;1.05;;;9.90;64.20;;;8.36;67.38;103073.16;8451456;28;20118;-82
2021/12/18 10:54:13;;;;;;;1.00;1.00;;;9.90;64.20;;;8.29;67.74;103061.03;8457573;28;20126;-82
2021/12/18 10:58:38;;;;;;;1.40;1.30;;;9.90;64.20;;;8.33;67.46;103053.22;8423712;28;20051;-82
2021/12/18 11:03:22;;;;;;;1.20;1.10;;;9.80;64.20;;;8.38;67.64;103061.84;8416810;28;20127;-82
2021/12/18 11:07:46;;;;;;;1.40;1.02;;;9.90;64.40;;;8.31;67.77;103041.94;8425491;28;20099;-82
2021/12/18 11:17:01;;;;;;;1.20;1.10;;;9.80;64.30;;;8.43;67.56;103024.53;8431307;28;20116;-82
2021/12/18 11:21:26;;;;;;;1.17;1.08;;;10.00;64.40;;;8.45;67.77;103025.38;8429275;28;20036;-82
2021/12/18 11:25:52;;;;;;;1.10;1.00;;;10.00;64.50;;;8.38;67.54;103004.56;8429641;28;20115;-82
2021/12/18 11:30:17;;;;;;;1.08;1.00;;;10.10;64.50;;;8.48;67.56;103009.72;8405402;28;20301;-83
2021/12/18 11:34:39;;;;;;;1.15;1.05;;;10.00;64.30;;;8.45;67.46;102996.72;8411930;28;20048;-89
2021/12/18 11:39:01;;;;;;;1.40;1.30;;;10.10;64.50;;;8.58;68.01;103019.16;8420699;28;20517;-81
2021/12/18 11:43:39;;;;;;;1.85;1.60;;;10.10;64.40;;;8.43;67.54;102982.88;8425021;28;20536;-81
2021/12/18 11:48:03;;;;;;;1.00;0.98;;;10.10;64.40;;;8.59;67.78;102997.47;8425198;28;20103;-83
2021/12/18 11:52:25;;;;;;;1.00;0.90;;;10.20;64.40;;;8.60;67.35;102992.22;8402406;28;20115;-84
2021/12/18 11:56:49;;;;;;;1.00;1.00;;;10.10;64.20;;;8.61;67.56;102985.28;8397956;28;20046;-80
2021/12/18 12:01:22;;;;;;;1.35;1.00;;;10.20;64.30;;;8.64;67.47;102988.72;8421651;28;20046;-81
2021/12/18 12:05:48;;;;;;;1.13;1.10;;;10.30;64.50;;;8.64;67.75;102982.63;8426265;28;20392;-81
2021/12/18 12:10:23;;;;;;;1.20;1.10;;;10.20;64.40;;;8.74;67.89;102992.09;8424232;28;20034;-82
2021/12/18 12:14:45;;;;;;;1.08;1.00;;;10.30;64.50;;;8.70;67.84;102985.19;8425665;28;20046;-83
2021/12/18 12:19:07;;;;;;;1.00;0.90;;;10.30;64.40;;;8.63;67.66;102973.09;8404086;28;20035;-83
2021/12/18 12:23:28;;;;;;;1.23;1.10;;;10.30;64.40;;;8.58;67.54;102957.53;8403776;28;20032;-81
2021/12/18 12:28:22;;;;;;;0.98;0.98;;;10.30;64.30;;;8.72;68.00;102972.13;8420482;28;20036;-81
2021/12/18 12:32:57;;;;;;;1.00;0.90;;;10.30;64.30;;;8.71;67.91;102962.59;8414797;28;20054;-82
2021/12/18 12:37:46;;;;;;;4.88;2.58;;;10.20;64.10;;;8.67;67.74;102940.94;8416492;28;20051;-82
2021/12/18 12:42:09;;;;;;;4.57;1.80;;;10.20;64.10;;;8.74;67.66;102937.38;8414484;28;20032;-82
2021/12/18 12:46:31;;;;;;;3.97;2.03;;;10.30;64.20;;;8.63;68.04;102914.06;8422028;28;20031;-82
2021/12/18 12:51:00;;;;;;;2.30;1.50;;;10.30;64.10;;;8.77;67.96;102926.91;8420367;28;20048;-82
2021/12/18 12:55:25;;;;;;;1.23;1.10;;;10.30;64.20;;;8.71;67.63;102921.78;8414846;28;20431;-82
2021/12/18 12:59:52;;;;;;;1.67;1.15;;;10.30;64.10;;;8.72;67.84;102907.91;8433422;28;20046;-82
2021/12/18 13:04:17;;;;;;;3.13;0.80;;;10.30;64.10;;;8.78;67.53;102905.22;8402497;28;20401;-82
2021/12/18 13:08:42;;;;;;;0.95;0.95;;;10.40;64.10;;;8.54;67.72;102862.09;8415539;28;20024;-83
2021/12/18 13:13:09;;;;;;;0.75;0.70;;;10.30;64.10;;;8.58;68.04;102865.53;8413756;28;20040;-83
2021/12/18 13:17:31;;;;;;;1.00;0.75;;;10.40;64.30;;;8.86;67.85;102900.78;8408359;28;20038;-83
2021/12/18 13:21:53;;;;;;;0.90;0.90;;;10.20;64.10;;;8.70;67.52;102857.56;8419449;28;20047;-82
2021/12/18 13:26:38;;;;;;;0.70;0.70;;;10.40;64.30;;;8.82;67.61;102883.44;8428159;28;20046;-83
2021/12/18 13:30:59;;;;;;;1.02;0.80;;;10.40;64.30;;;8.94;67.88;102881.53;8412246;28;20683;-83
2021/12/18 13:35:24;;;;;;;0.80;0.80;;;10.30;64.20;;;8.94;67.64;102878.94;8420099;28;20044;-83
2021/12/18 13:39:49;;;;;;;0.60;0.60;;;10.50;64.40;;;8.97;67.75;102871.09;8394614;28;20032;-82
2021/12/18 13:44:11;;;;;;;0.80;0.80;;;10.40;64.40;;;8.95;67.35;102863.28;8414186;28;20066;-83
2021/12/18 13:48:40;;;;;;;0.63;0.63;;;10.50;64.40;;;8.96;67.94;102854.59;8404819;28;20225;-82
2021/12/18 13:53:05;;;;;;;0.65;0.65;;;10.50;64.50;;;8.98;68.11;102846.75;8413083;28;20043;-84
2021/12/18 13:57:27;;;;;;;0.65;0.65;;;10.50;64.40;;;8.86;67.57;102816.53;8399901;28;20484;-82
2021/12/18 14:01:49;;;;;;;0.70;0.70;;;10.60;64.50;;;9.03;67.99;102840.59;8423247;28;20048;-82
2021/12/18 14:06:26;;;;;;;0.60;0.60;;;10.60;65.20;;;9.05;67.69;102849.25;8411694;28;20032;-81
2021/12/18 14:10:48;;;;;;;0.75;0.75;;;10.60;64.60;;;9.09;68.06;102850.06;8421021;28;20042;-82
2021/12/18 14:15:17;;;;;;;0.82;0.82;;;10.50;64.50;;;8.99;67.58;102822.41;8412584;28;20048;-82
2021/12/18 14:19:43;;;;;;;0.70;0.70;;;10.60;64.70;;;9.10;68.18;102830.97;8396108;28;20329;-82
2021/12/18 14:24:07;;;;;;;3.80;2.22;;;10.60;64.70;;;9.09;68.01;102813.56;8419008;28;20484;-82
2021/12/18 14:28:33;;;;;;;3.35;2.08;;;10.60;64.70;;;9.09;67.76;102805.75;8411476;28;20504;-84
2021/12/18 14:33:10;;;;;;;3.00;1.90;;;10.70;64.80;;;9.09;67.77;102801.41;8392540;28;20040;-83
2021/12/18 14:37:45;;;;;;;1.73;1.17;;;10.60;64.90;;;9.11;68.07;102801.38;8398992;28;20042;-82
2021/12/18 14:42:17;;;;;;;1.33;1.02;;;10.70;65.00;;;9.02;67.87;102797.19;8413803;28;20046;-82
2021/12/18 14:46:39;;;;;;;0.95;0.80;;;10.70;65.00;;;9.10;67.95;102791.88;8411484;28;20044;-82
2021/12/18 14:51:01;;;;;;;0.80;0.80;;;10.70;65.00;;;9.14;67.69;102796.13;8417242;28;20040;-80
2021/12/18 14:55:46;;;;;;;0.70;0.70;;;10.70;65.00;;;9.09;68.02;102793.59;8416490;28;20040;-83
2021/12/18 15:00:19;;;;;;;0.60;0.60;;;10.70;65.10;;;9.09;67.73;102792.72;8428189;28;20046;-82
2021/12/18 15:04:41;;;;;;;0.65;0.65;;;10.70;65.00;;;9.14;67.81;102800.47;8420333;28;20034;-81
2021/12/18 15:09:11;;;;;;;0.65;0.65;;;10.70;65.10;;;9.02;68.30;102781.56;8414599;28;20105;-81
2021/12/18 15:13:37;;;;;;;0.70;0.70;;;10.60;64.90;;;9.16;67.96;102799.56;8423905;28;20040;-82
2021/12/18 15:18:01;;;;;;;1.10;1.10;;;10.60;64.90;;;9.16;68.12;102798.72;8421788;28;20040;-82
2021/12/18 15:22:22;;;;;;;1.00;1.00;;;10.70;65.00;;;9.10;67.88;102789.25;8420191;28;20504;-81
2021/12/18 15:26:48;;;;;;;1.80;1.00;;;10.70;64.80;;;9.07;67.96;102786.66;8423976;28;20036;-80
2021/12/18 15:31:13;;;;;;;1.25;1.15;;;10.60;64.50;;;9.10;67.98;102784.03;8415796;28;20050;-81
2021/12/18 15:35:35;;;;;;;1.07;1.00;;;10.70;64.50;;;9.04;67.68;102769.34;8377150;28;21470;-81
2021/12/18 15:39:56;;;;;;;0.95;0.95;;;10.40;64.30;;;9.07;68.12;102763.22;8421567;28;20043;-83
2021/12/18 15:44:18;;;;;;;1.08;0.98;;;10.60;64.40;;;9.09;67.65;102764.91;8422270;28;20032;-82
2021/12/18 15:48:45;;;;;;;1.05;1.05;;;10.70;64.40;;;9.12;67.77;102756.19;8421961;28;20046;-82
2021/12/18 15:53:06;;;;;;;1.23;1.20;;;10.50;64.30;;;9.11;68.07;102746.66;8418625;28;20576;-83
2021/12/18 15:57:28;;;;;;;1.38;1.27;;;10.70;64.40;;;9.14;68.00;102749.22;8423591;28;20397;-82
2021/12/18 16:01:50;;;;;;;1.05;0.95;;;10.70;64.50;;;9.11;67.98;102738.84;8410106;28;20058;-83
2021/12/18 16:06:13;;;;;;;1.33;1.23;;;10.60;64.50;;;9.15;68.33;102740.50;8423611;28;20044;-83
2021/12/18 16:10:40;;;;;;;1.23;1.13;;;10.70;64.60;;;9.19;67.84;102739.56;8425628;28;20383;-82
2021/12/18 16:15:03;;;;;;;1.58;1.48;;;10.70;64.60;;;9.09;68.00;102730.19;8395885;28;20050;-82
2021/12/18 16:19:24;;;;;;;1.80;1.70;;;10.80;64.70;;;9.13;67.62;102728.38;8423873;28;20050;-82
2021/12/18 16:23:46;;;;;;;1.02;1.02;;;10.70;64.70;;;9.14;67.73;102728.34;8420737;28;20542;-82
2021/12/18 16:28:08;;;;;;;1.15;1.08;;;10.60;64.70;;;9.10;67.66;102718.88;8414968;28;20036;-82
2021/12/18 16:32:30;;;;;;;1.35;1.25;;;10.60;64.80;;;9.19;67.79;102739.56;8428561;28;20115;-82
2021/12/18 16:36:54;;;;;;;1.75;1.58;;;10.80;65.00;;;9.04;68.14;102722.44;8421719;28;20054;-81
2021/12/18 16:41:19;;;;;;;2.60;2.40;;;10.70;65.00;;;9.19;67.83;102733.50;8415449;28;20411;-82
2021/12/18 16:45:42;;;;;;;2.63;2.33;;;10.70;65.10;;;9.12;67.79;102706.66;8415744;28;20032;-82
2021/12/18 16:50:06;;;;;;;3.03;2.47;;;10.60;65.00;;;9.15;67.87;102714.44;8428521;28;20512;-84
2021/12/18 16:54:27;;;;;;;2.38;2.17;;;10.70;65.10;;;9.19;67.82;102723.94;8385246;28;20872;-82
2021/12/18 16:58:50;;;;;;;2.40;2.05;;;10.70;65.10;;;9.13;68.07;102712.72;8419616;28;20043;-83
2021/12/18 17:03:12;;;;;;;1.70;1.60;;;10.70;65.20;;;9.20;68.12;102732.59;8399716;28;20033;-83
2021/12/18 17:07:34;;;;;;;2.50;2.30;;;10.70;65.20;;;9.21;68.24;102729.13;8411348;28;20036;-83
2021/12/18 17:11:55;;;;;;;3.17;2.88;;;10.60;65.10;;;9.21;67.90;102729.97;8399834;28;20040;-82
2021/12/18 17:16:20;;;;;;;3.13;2.85;;;10.60;65.10;;;9.19;68.25;102723.06;8409318;28;20602;-83
2021/12/18 17:20:42;;;;;;;3.20;2.90;;;10.70;65.20;;;9.10;67.96;102700.66;8413509;28;20484;-83
2021/12/18 17:25:09;;;;;;;3.55;3.25;;;10.70;65.10;;;9.14;68.33;102697.06;8428790;28;20042;-83
2021/12/18 17:29:31;;;;;;;3.67;3.38;;;10.90;65.30;;;9.17;67.87;102717.03;8419242;28;20042;-82
2021/12/18 17:33:54;;;;;;;3.17;2.88;;;10.70;65.10;;;9.07;67.89;102704.16;8415275;28;20047;-83
2021/12/18 17:38:17;;;;;;;3.13;2.88;;;10.70;65.10;;;9.12;68.19;102688.41;8417676;28;20031;-83
2021/12/18 17:42:39;;;;;;;3.40;3.10;;;10.60;64.90;;;9.15;68.27;102687.50;8389609;28;20397;-82
2021/12/18 17:47:00;;;;;;;5.05;3.28;;;10.60;64.90;;;9.12;68.38;102670.19;8408044;28;20410;-83
2021/12/18 17:51:22;;;;;;;4.10;3.50;;;10.60;64.90;;;9.10;67.88;102661.56;8399247;28;20048;-83
2021/12/18 17:55:44;;;;;;;3.83;3.30;;;10.60;64.80;;;9.09;67.97;102668.47;8415994;28;20419;-84
2021/12/18 18:00:12;;;;;;;2.65;2.45;;;10.90;65.00;;;9.15;68.40;102664.91;8407133;28;20062;-83
2021/12/18 18:04:34;;;;;;;2.83;2.50;;;10.70;64.80;;;9.14;68.14;102651.91;8399876;28;20671;-83
2021/12/18 18:08:58;;;;;;;3.05;2.55;;;10.70;64.80;;;9.23;68.19;102659.56;8426656;28;20051;-84
2021/12/18 18:13:25;;;;;;;2.83;2.63;;;10.80;64.70;;;9.24;68.16;102649.13;8401331;28;20028;-83
2021/12/18 18:17:46;;;;;;;2.08;1.98;;;10.80;64.70;;;9.22;68.16;102639.59;8414960;28;20066;-83
2021/12/18 18:22:11;;;;;;;5.70;3.40;;;10.80;64.70;;;9.30;67.73;102630.75;8413377;28;20510;-83
2021/12/18 18:26:33;;;;;;;4.75;3.20;;;10.80;64.70;;;9.33;67.97;102615.94;8426273;28;20031;-83
2021/12/18 18:30:55;;;;;;;3.90;2.95;;;10.80;64.80;;;9.24;67.84;102612.63;8411240;28;20050;-84
2021/12/18 18:35:19;;;;;;;3.53;2.75;;;10.80;64.80;;;9.16;67.74;102585.84;8416414;28;20048;-84
2021/12/18 18:39:41;;;;;;;5.57;4.07;;;10.80;64.80;;;9.29;67.95;102605.56;8400035;28;20032;-83
2021/12/18 18:44:05;;;;;;;4.82;3.47;;;10.80;64.90;;;9.36;68.51;102610.66;8421484;28;20032;-83
2021/12/18 18:48:27;;;;;;;4.97;3.42;;;10.90;65.00;;;9.33;68.02;102595.06;8416690;28;20062;-83
2021/12/18 18:52:49;;;;;;;3.88;3.40;;;10.80;65.00;;;9.33;67.97;102595.06;8417154;28;20641;-82
2021/12/18 18:57:11;;;;;;;4.35;3.47;;;10.80;65.00;;;9.16;68.12;102557.16;8409686;28;20035;-83
2021/12/18 19:01:35;;;;;;;3.75;3.40;;;10.80;65.10;;;9.20;68.39;102561.41;8429566;28;20038;-83
2021/12/18 19:05:56;;;;;;;3.53;2.95;;;10.90;65.20;;;9.37;67.71;102581.97;8412493;28;20040;-83
2021/12/18 19:10:19;;;;;;;4.22;3.05;;;10.70;65.10;;;9.34;67.95;102562.88;8424285;28;20042;-83